Time;durP1;ratioP1;P1;durP2;ratioP2;P2;SDS_P1;SDS_P2;PMS_P1;PMS_P2;Temp;Humidity;BMP_temperature;BMP_pressure;BME280_temperature;BME280_humidity;BME280_pressure;Samples;Min_cycle;Max_cycle;Signal;HPM_P1;HPM_P2
2023/02/16 00:00:26;;;;;;;42.10;21.20;;;7.70;99.90;;;;;;5101070;28;20059;-77
2023/02/16 00:02:52;;;;;;;39.35;19.95;;;7.80;99.90;;;;;;5103358;28;20471;-77
2023/02/16 00:05:28;;;;;;;38.25;19.98;;;7.70;99.90;;;;;;5082489;28;20024;-77
2023/02/16 00:07:55;;;;;;;38.38;20.23;;;7.70;99.90;;;;;;5100720;28;20016;-78
2023/02/16 00:10:21;;;;;;;41.72;20.92;;;7.70;99.90;;;;;;5102752;28;20499;-77
2023/02/16 00:15:31;;;;;;;43.28;20.63;;;7.70;99.90;;;;;;5096596;28;20081;-78
2023/02/16 00:17:59;;;;;;;41.03;21.27;;;7.70;99.90;;;;;;5102353;28;20020;-77
2023/02/16 00:20:25;;;;;;;41.42;20.75;;;7.60;99.90;;;;;;5103916;28;20379;-78
2023/02/16 00:22:51;;;;;;;38.13;19.42;;;7.60;99.90;;;;;;5104122;28;20391;-77
2023/02/16 00:25:17;;;;;;;44.15;20.83;;;7.70;99.90;;;;;;5100184;28;20024;-77
2023/02/16 00:27:43;;;;;;;43.03;21.10;;;7.60;99.90;;;;;;5104208;28;20036;-77
2023/02/16 00:30:17;;;;;;;42.50;21.60;;;7.70;99.90;;;;;;5084951;28;20020;-77
2023/02/16 00:32:43;;;;;;;35.00;19.77;;;7.70;99.90;;;;;;5103774;28;20028;-78
2023/02/16 00:35:27;;;;;;;39.70;21.40;;;7.70;99.90;;;;;;5105663;28;20103;-78
2023/02/16 00:37:52;;;;;;;39.25;20.50;;;7.60;99.90;;;;;;5065806;28;20166;-78
2023/02/16 00:40:18;;;;;;;36.30;20.13;;;7.60;99.90;;;;;;5104709;28;20070;-78
2023/02/16 00:42:46;;;;;;;38.60;20.55;;;7.60;99.90;;;;;;5086717;28;20055;-78
2023/02/16 00:45:21;;;;;;;39.30;20.88;;;7.60;99.90;;;;;;5106645;28;20088;-78
2023/02/16 00:47:51;;;;;;;38.50;21.40;;;7.60;99.90;;;;;;5102426;28;20028;-77
2023/02/16 00:50:31;;;;;;;39.17;20.08;;;7.60;99.90;;;;;;5101562;28;20024;-77
2023/02/16 00:52:57;;;;;;;44.35;21.77;;;7.50;99.90;;;;;;5084011;28;20056;-77
2023/02/16 00:55:27;;;;;;;38.20;21.10;;;7.50;99.90;;;;;;5103982;28;20020;-77
2023/02/16 00:58:01;;;;;;;41.10;21.52;;;7.50;99.90;;;;;;5099748;28;20103;-77
2023/02/16 01:00:36;;;;;;;41.88;20.48;;;7.50;99.90;;;;;;5082748;28;20070;-78
2023/02/16 01:03:06;;;;;;;40.83;22.58;;;7.50;99.90;;;;;;5087936;28;20118;-77
2023/02/16 01:05:32;;;;;;;42.95;21.15;;;7.50;99.90;;;;;;5105298;28;20028;-77
2023/02/16 01:13:28;;;;;;;37.22;21.00;;;7.60;99.90;;;;;;5103480;28;20038;-78
2023/02/16 01:15:54;;;;;;;38.38;20.80;;;7.50;99.90;;;;;;5103351;28;20063;-78
2023/02/16 01:18:20;;;;;;;42.78;21.42;;;7.50;99.90;;;;;;5106047;28;20034;-77
2023/02/16 01:20:47;;;;;;;41.95;22.25;;;7.50;99.90;;;;;;5104049;28;20029;-77
2023/02/16 01:23:13;;;;;;;39.78;21.10;;;7.50;99.90;;;;;;5086051;28;20031;-78
2023/02/16 01:25:39;;;;;;;42.50;21.92;;;7.50;99.90;;;;;;5087179;28;20027;-77
2023/02/16 01:28:16;;;;;;;42.15;21.48;;;7.50;99.90;;;;;;5102475;28;20032;-77
2023/02/16 01:30:42;;;;;;;43.17;22.08;;;7.50;99.90;;;;;;5083799;28;20028;-77
2023/02/16 01:33:08;;;;;;;37.47;21.15;;;7.50;99.90;;;;;;5105790;28;20027;-77
2023/02/16 01:35:36;;;;;;;44.92;22.40;;;7.40;99.90;;;;;;5102825;28;20024;-78
2023/02/16 01:38:02;;;;;;;40.63;20.90;;;7.40;99.90;;;;;;5104705;28;20052;-77
2023/02/16 01:40:31;;;;;;;45.65;22.55;;;7.50;99.90;;;;;;5101853;28;20032;-77
2023/02/16 01:43:13;;;;;;;43.85;22.25;;;7.40;99.90;;;;;;5105886;28;20020;-78
2023/02/16 01:45:42;;;;;;;38.47;20.63;;;7.40;99.90;;;;;;5105104;28;20103;-77
2023/02/16 01:48:24;;;;;;;46.33;22.40;;;7.40;99.90;;;;;;5084372;28;20028;-77
2023/02/16 01:51:18;;;;;;;46.30;23.15;;;7.40;99.90;;;;;;5102392;28;20050;-78
2023/02/16 01:53:51;;;;;;;43.25;23.50;;;7.40;99.90;;;;;;5098813;28;20035;-77
2023/02/16 01:56:46;;;;;;;43.00;23.25;;;7.50;99.90;;;;;;5103266;28;20027;-77
2023/02/16 01:59:30;;;;;;;42.60;21.95;;;7.40;99.90;;;;;;5090667;28;20040;-77
2023/02/16 02:01:58;;;;;;;42.45;21.98;;;7.40;99.90;;;;;;5104777;28;20102;-77
2023/02/16 02:07:43;;;;;;;45.22;23.90;;;7.40;99.90;;;;;;5103375;28;20505;-77
2023/02/16 02:10:12;;;;;;;46.55;23.90;;;7.40;99.90;;;;;;5100220;28;20043;-78
2023/02/16 02:13:11;;;;;;;46.45;22.85;;;7.40;99.90;;;;;;5084618;28;20032;-77
2023/02/16 02:15:37;;;;;;;40.97;23.23;;;7.40;99.90;;;;;;5093924;28;20028;-77
2023/02/16 02:18:03;;;;;;;41.65;23.33;;;7.40;99.90;;;;;;5103231;28;20536;-77
2023/02/16 02:23:46;;;;;;;44.60;23.25;;;7.40;99.90;;;;;;5098274;28;20495;-77
2023/02/16 02:26:30;;;;;;;44.22;23.25;;;7.40;99.90;;;;;;5098814;28;20475;-78
2023/02/16 02:29:11;;;;;;;45.92;25.02;;;7.40;99.90;;;;;;5101940;28;20471;-78
2023/02/16 02:31:54;;;;;;;49.85;25.45;;;7.30;99.90;;;;;;5098397;28;20019;-78
2023/02/16 02:34:35;;;;;;;48.97;23.23;;;7.30;99.90;;;;;;5096744;28;20440;-78
2023/02/16 02:37:17;;;;;;;46.55;24.35;;;7.30;99.90;;;;;;5093784;28;20505;-78
2023/02/16 02:39:55;;;;;;;;;;;7.30;99.90;;;;;;5101945;28;20032;-78
2023/02/16 02:42:42;;;;;;;47.85;25.35;;;7.30;99.90;;;;;;5102482;28;19988;-78
2023/02/16 02:45:28;;;;;;;47.80;24.85;;;7.30;99.90;;;;;;5100784;28;20275;-78
2023/02/16 02:47:54;;;;;;;53.15;25.08;;;7.30;99.90;;;;;;5100477;28;20133;-78
2023/02/16 02:50:41;;;;;;;46.75;24.75;;;7.20;99.90;;;;;;5101844;28;20032;-78
2023/02/16 02:53:13;;;;;;;48.05;25.83;;;7.20;99.90;;;;;;5102058;28;20030;-78
2023/02/16 03:01:17;;;;;;;47.33;25.42;;;7.20;99.90;;;;;;5094265;28;20555;-78
2023/02/16 03:03:49;;;;;;;50.15;25.40;;;7.10;99.90;;;;;;5102474;28;20034;-78
2023/02/16 03:06:30;;;;;;;48.78;25.63;;;7.10;99.90;;;;;;5104274;28;20482;-78
2023/02/16 03:09:07;;;;;;;44.45;24.85;;;7.10;99.90;;;;;;5103130;28;20073;-78
2023/02/16 03:14:36;;;;;;;51.92;25.83;;;7.00;99.90;;;;;;5098124;28;20043;-78
2023/02/16 03:31:08;;;;;;;51.92;26.88;;;6.90;99.90;;;;;;5099354;28;20096;-78
2023/02/16 03:33:35;;;;;;;54.47;27.77;;;6.90;99.90;;;;;;5102588;28;20111;-78
2023/02/16 03:36:02;;;;;;;50.45;27.45;;;6.90;99.90;;;;;;5082450;28;20039;-78
2023/02/16 03:38:28;;;;;;;55.42;28.63;;;6.90;99.90;;;;;;5078362;28;20028;-78
2023/02/16 03:40:54;;;;;;;51.45;27.73;;;6.90;99.90;;;;;;5102576;28;20031;-78
2023/02/16 03:43:24;;;;;;;51.97;27.05;;;6.80;99.90;;;;;;5102395;28;20024;-77
2023/02/16 03:45:50;;;;;;;51.67;28.10;;;6.80;99.90;;;;;;5100301;28;20070;-78
2023/02/16 03:48:16;;;;;;;48.63;26.73;;;6.80;99.90;;;;;;5084889;28;20016;-78
2023/02/16 03:50:41;;;;;;;53.53;28.25;;;6.80;99.90;;;;;;5101374;28;20020;-78
2023/02/16 03:53:07;;;;;;;53.10;29.08;;;6.70;99.90;;;;;;5083439;28;20024;-78
2023/02/16 03:55:34;;;;;;;56.85;29.13;;;6.70;99.90;;;;;;5105657;28;20401;-78
2023/02/16 03:57:59;;;;;;;55.30;30.02;;;6.70;99.90;;;;;;5089848;28;20111;-77
2023/02/16 04:00:25;;;;;;;56.53;29.00;;;6.70;99.90;;;;;;5106840;28;20450;-78
2023/02/16 04:02:51;;;;;;;60.15;31.38;;;6.70;99.90;;;;;;5106064;28;20019;-78
2023/02/16 04:05:17;;;;;;;67.50;31.23;;;6.70;99.90;;;;;;5120754;27;20032;-78
2023/02/16 04:07:42;;;;;;;57.42;31.20;;;6.70;99.90;;;;;;5107548;28;20031;-78
2023/02/16 04:10:08;;;;;;;56.20;29.95;;;6.70;99.90;;;;;;5085783;28;20070;-78
2023/02/16 04:12:37;;;;;;;57.35;30.13;;;6.70;99.90;;;;;;5106314;28;20461;-78
2023/02/16 04:15:05;;;;;;;57.58;32.28;;;6.60;99.90;;;;;;5106615;28;20364;-77
2023/02/16 04:17:31;;;;;;;56.95;31.75;;;6.70;99.90;;;;;;5104180;28;20046;-77
2023/02/16 04:19:57;;;;;;;57.47;30.67;;;6.60;99.90;;;;;;5106611;28;20027;-77
2023/02/16 04:22:22;;;;;;;55.83;30.67;;;6.70;99.90;;;;;;5105744;28;20103;-78
2023/02/16 04:24:48;;;;;;;59.95;31.73;;;6.70;99.90;;;;;;5104978;28;20066;-78
2023/02/16 04:27:14;;;;;;;58.55;30.85;;;6.70;99.90;;;;;;5104759;28;20417;-78
2023/02/16 04:29:40;;;;;;;61.75;32.30;;;6.70;99.90;;;;;;5102215;28;20483;-78
2023/02/16 04:32:05;;;;;;;58.72;31.73;;;6.70;99.90;;;;;;5106259;28;20026;-78
2023/02/16 04:34:31;;;;;;;64.68;32.20;;;6.70;99.90;;;;;;5105775;28;20032;-77
2023/02/16 04:36:57;;;;;;;62.95;31.90;;;6.70;99.90;;;;;;5086225;28;20035;-78
2023/02/16 04:39:23;;;;;;;62.17;33.05;;;6.60;99.90;;;;;;5106879;28;20110;-78
2023/02/16 04:41:49;;;;;;;59.63;32.60;;;6.60;99.90;;;;;;5086065;28;20210;-78
2023/02/16 04:44:14;;;;;;;61.45;33.72;;;6.60;99.90;;;;;;5087374;28;20442;-78
2023/02/16 04:46:40;;;;;;;61.75;32.78;;;6.50;99.90;;;;;;5084941;28;20380;-78
2023/02/16 04:49:06;;;;;;;63.55;32.67;;;6.50;99.90;;;;;;5106623;28;20020;-78
2023/02/16 04:51:31;;;;;;;75.10;35.55;;;6.60;99.90;;;;;;5103554;28;20024;-78
2023/02/16 04:53:57;;;;;;;69.03;34.15;;;6.60;99.90;;;;;;5105895;28;20168;-77
2023/02/16 04:56:23;;;;;;;64.65;33.85;;;6.60;99.90;;;;;;5086862;28;20031;-78
2023/02/16 04:58:48;;;;;;;63.58;34.40;;;6.50;99.90;;;;;;5103502;28;20136;-78
2023/02/16 05:01:21;;;;;;;66.70;33.95;;;6.50;99.90;;;;;;5099597;28;20483;-78
2023/02/16 05:03:47;;;;;;;62.60;33.83;;;6.50;99.90;;;;;;5086860;28;20091;-77
2023/02/16 05:06:13;;;;;;;64.95;34.35;;;6.50;99.90;;;;;;5105162;28;20095;-78
2023/02/16 05:08:39;;;;;;;67.25;34.97;;;6.50;99.90;;;;;;5103478;28;20387;-77
2023/02/16 05:16:33;;;;;;;65.10;34.15;;;6.50;99.90;;;;;;5106562;28;20070;-78
2023/02/16 05:18:59;;;;;;;74.88;36.45;;;6.40;99.90;;;;;;5102866;28;20069;-78
2023/02/16 05:21:30;;;;;;;66.88;35.03;;;6.40;99.90;;;;;;5109475;28;20113;-78
2023/02/16 05:24:01;;;;;;;70.70;36.50;;;6.40;99.90;;;;;;5105516;28;20050;-78
2023/02/16 05:26:27;;;;;;;68.70;34.60;;;6.40;99.90;;;;;;5099206;28;20024;-77
2023/02/16 05:28:53;;;;;;;74.63;38.45;;;6.40;99.90;;;;;;5102979;28;20032;-78
2023/02/16 05:31:19;;;;;;;64.75;35.50;;;6.40;99.90;;;;;;5118717;27;20372;-77
2023/02/16 05:33:44;;;;;;;73.03;36.00;;;6.40;99.90;;;;;;5085353;28;20024;-77
2023/02/16 05:36:10;;;;;;;65.53;35.67;;;6.40;99.90;;;;;;5087630;28;20031;-77
2023/02/16 05:38:39;;;;;;;67.05;35.83;;;6.40;99.90;;;;;;5103207;28;20439;-78
2023/02/16 05:41:04;;;;;;;73.70;37.75;;;6.30;99.90;;;;;;5102585;28;20081;-78
2023/02/16 05:43:30;;;;;;;72.60;37.03;;;6.30;99.90;;;;;;5119029;27;20032;-78
2023/02/16 05:45:56;;;;;;;73.93;37.20;;;6.30;99.90;;;;;;5105734;28;20033;-78
2023/02/16 05:48:21;;;;;;;73.00;37.28;;;6.30;99.90;;;;;;5102817;28;20059;-77
2023/02/16 05:50:47;;;;;;;73.93;36.90;;;6.30;99.90;;;;;;5104523;28;20020;-78
2023/02/16 05:53:13;;;;;;;70.40;36.72;;;6.30;99.90;;;;;;5083575;28;20023;-78
2023/02/16 05:55:38;;;;;;;64.25;37.13;;;6.30;99.90;;;;;;5086705;28;20019;-78
2023/02/16 05:58:07;;;;;;;73.40;37.80;;;6.40;99.90;;;;;;5101751;28;20015;-78
2023/02/16 06:00:37;;;;;;;72.32;38.65;;;6.30;99.90;;;;;;5082649;28;20019;-77
2023/02/16 06:03:02;;;;;;;75.72;39.53;;;6.40;99.90;;;;;;5083520;28;20028;-78
2023/02/16 06:05:28;;;;;;;75.68;39.58;;;6.30;99.90;;;;;;5105506;28;20486;-78
2023/02/16 06:07:54;;;;;;;75.25;39.47;;;6.30;99.90;;;;;;5102436;28;20024;-77
2023/02/16 06:10:19;;;;;;;81.25;41.25;;;6.30;99.90;;;;;;5102854;28;20048;-78
2023/02/16 06:12:45;;;;;;;75.07;37.70;;;6.30;99.90;;;;;;5087425;28;20024;-78
2023/02/16 06:15:11;;;;;;;77.03;39.35;;;6.30;99.90;;;;;;5102810;28;20043;-77
2023/02/16 06:17:37;;;;;;;81.70;40.47;;;6.30;99.90;;;;;;5100815;28;20467;-78
2023/02/16 06:20:04;;;;;;;81.90;40.92;;;6.30;99.90;;;;;;5083407;28;20101;-78
2023/02/16 06:22:30;;;;;;;75.32;40.95;;;6.30;99.90;;;;;;5085224;28;20376;-78
2023/02/16 06:24:55;;;;;;;79.28;39.80;;;6.30;99.90;;;;;;5104027;28;20035;-78
2023/02/16 06:27:21;;;;;;;79.30;40.92;;;6.30;99.90;;;;;;5099226;28;20081;-77
2023/02/16 06:29:47;;;;;;;79.10;40.92;;;6.30;99.90;;;;;;5100628;28;20020;-78
2023/02/16 06:32:12;;;;;;;82.72;42.78;;;6.30;99.90;;;;;;5084189;28;20028;-77
2023/02/16 06:34:38;;;;;;;75.53;40.97;;;6.30;99.90;;;;;;5102049;28;20475;-78
2023/02/16 06:37:04;;;;;;;81.20;44.05;;;6.40;99.90;;;;;;5101747;28;20060;-78
2023/02/16 06:39:30;;;;;;;83.20;42.13;;;6.30;99.90;;;;;;5102899;28;20035;-77
2023/02/16 06:41:55;;;;;;;76.03;40.80;;;6.40;99.90;;;;;;5101841;28;20028;-77
2023/02/16 06:44:21;;;;;;;77.65;41.88;;;6.40;99.90;;;;;;5102781;28;20028;-78
2023/02/16 06:46:47;;;;;;;83.35;42.53;;;6.40;99.90;;;;;;5103613;28;20028;-77
2023/02/16 06:49:16;;;;;;;86.35;44.67;;;6.30;99.90;;;;;;5099803;28;20024;-77
2023/02/16 06:51:43;;;;;;;87.40;43.78;;;6.40;99.90;;;;;;5082713;28;20376;-77
2023/02/16 06:54:09;;;;;;;92.75;47.15;;;6.40;99.90;;;;;;5080184;28;20035;-78
2023/02/16 06:56:35;;;;;;;90.03;47.33;;;6.50;99.90;;;;;;5100007;28;20110;-78
2023/02/16 06:59:01;;;;;;;86.13;46.10;;;6.50;99.90;;;;;;5105360;28;20031;-78
2023/02/16 07:01:28;;;;;;;91.05;45.28;;;6.60;99.90;;;;;;5078355;28;20031;-77
2023/02/16 07:03:55;;;;;;;91.07;45.90;;;6.50;99.90;;;;;;5091394;28;20129;-77
2023/02/16 07:06:23;;;;;;;85.10;46.50;;;6.60;99.90;;;;;;5102779;28;20096;-77
2023/02/16 07:08:49;;;;;;;90.18;48.10;;;6.60;99.90;;;;;;5112725;28;20052;-77
2023/02/16 07:11:16;;;;;;;90.30;46.75;;;6.60;99.90;;;;;;5113547;28;20600;-77
2023/02/16 07:13:42;;;;;;;99.70;45.53;;;6.60;99.90;;;;;;5095811;28;20047;-77
2023/02/16 07:16:09;;;;;;;88.93;47.50;;;6.70;99.90;;;;;;5079108;28;20048;-78
2023/02/16 07:18:35;;;;;;;88.47;45.50;;;6.70;99.90;;;;;;5113691;28;20023;-77
2023/02/16 07:21:01;;;;;;;97.45;47.55;;;6.80;99.90;;;;;;5104159;28;20110;-78
2023/02/16 07:23:27;;;;;;;88.15;46.08;;;6.80;99.90;;;;;;5103273;28;20114;-77
2023/02/16 07:28:36;;;;;;;92.90;48.75;;;6.90;99.90;;;;;;5099496;28;20101;-77
2023/02/16 07:31:10;;;;;;;93.57;49.22;;;6.90;99.90;;;;;;5093356;28;20610;-78
2023/02/16 07:33:36;;;;;;;95.78;49.10;;;6.90;99.90;;;;;;5094674;28;20031;-78
2023/02/16 07:36:06;;;;;;;99.40;49.13;;;7.00;99.90;;;;;;5095435;28;20024;-78
2023/02/16 07:38:31;;;;;;;95.28;49.80;;;7.00;99.90;;;;;;5087658;28;20031;-78
2023/02/16 07:40:57;;;;;;;95.55;47.83;;;7.00;99.90;;;;;;5104841;28;20020;-78
2023/02/16 07:43:27;;;;;;;89.32;47.38;;;7.10;99.90;;;;;;5074919;28;20451;-78
2023/02/16 07:45:53;;;;;;;97.38;48.20;;;7.10;99.90;;;;;;5093497;28;20022;-78
2023/02/16 07:48:19;;;;;;;93.95;48.80;;;7.20;99.90;;;;;;5096737;28;20102;-78
2023/02/16 07:50:44;;;;;;;102.55;50.00;;;7.20;99.90;;;;;;5113638;28;20019;-78
2023/02/16 07:53:10;;;;;;;94.97;49.67;;;7.30;99.90;;;;;;5095326;28;20023;-78
2023/02/16 07:55:40;;;;;;;99.85;48.60;;;7.30;99.90;;;;;;5110834;28;20024;-77
2023/02/16 07:58:07;;;;;;;98.57;48.58;;;7.40;99.90;;;;;;5093141;28;20075;-77
2023/02/16 08:00:32;;;;;;;100.07;48.20;;;7.50;99.90;;;;;;5074636;28;20035;-78
2023/02/16 08:02:58;;;;;;;105.07;50.42;;;7.50;99.90;;;;;;5096328;28;20024;-77
2023/02/16 08:05:26;;;;;;;95.88;51.10;;;7.60;99.90;;;;;;5096512;28;20054;-78
2023/02/16 08:07:52;;;;;;;93.38;49.92;;;7.70;99.90;;;;;;5103292;28;20503;-78
2023/02/16 08:10:18;;;;;;;105.45;51.15;;;7.80;99.90;;;;;;5078041;28;20062;-77
2023/02/16 08:12:43;;;;;;;104.35;50.67;;;7.90;99.90;;;;;;5102679;28;20043;-77
2023/02/16 08:15:10;;;;;;;96.18;51.10;;;7.90;99.90;;;;;;5083637;28;20115;-77
2023/02/16 08:17:36;;;;;;;106.20;52.45;;;8.00;99.90;;;;;;5100208;28;20024;-76
2023/02/16 08:20:04;;;;;;;97.20;51.30;;;8.00;99.90;;;;;;5103323;28;20027;-76
2023/02/16 08:22:29;;;;;;;97.25;52.80;;;8.00;99.90;;;;;;5082876;28;20020;-76
2023/02/16 08:24:55;;;;;;;101.53;51.63;;;8.10;99.90;;;;;;5101616;28;20570;-76
2023/02/16 08:27:21;;;;;;;101.55;51.50;;;8.20;99.90;;;;;;5099504;28;20507;-78
2023/02/16 08:29:46;;;;;;;100.20;50.45;;;8.30;99.90;;;;;;5099782;28;20484;-78
2023/02/16 08:32:13;;;;;;;106.40;53.78;;;8.30;99.90;;;;;;5084584;28;20020;-78
2023/02/16 08:34:39;;;;;;;104.65;54.63;;;8.40;99.90;;;;;;5101282;28;20035;-77
2023/02/16 08:37:05;;;;;;;107.50;53.92;;;8.50;99.90;;;;;;5101124;28;20104;-77
2023/02/16 08:39:32;;;;;;;108.43;55.75;;;8.50;99.90;;;;;;5103309;28;20429;-77
2023/02/16 08:41:59;;;;;;;114.97;57.10;;;8.60;99.90;;;;;;5099321;28;20024;-77
2023/02/16 08:44:26;;;;;;;116.68;61.83;;;8.60;99.90;;;;;;5105820;28;20563;-77
2023/02/16 08:46:54;;;;;;;115.53;60.85;;;8.70;99.90;;;;;;5104633;28;20497;-77
2023/02/16 08:49:22;;;;;;;120.60;62.95;;;8.70;99.90;;;;;;5103833;28;20028;-77
2023/02/16 08:51:51;;;;;;;117.35;60.97;;;8.80;99.90;;;;;;5105803;28;20487;-77
2023/02/16 08:54:20;;;;;;;123.57;64.72;;;8.80;99.90;;;;;;5105264;28;20024;-77
2023/02/16 08:56:46;;;;;;;128.05;65.40;;;8.90;99.90;;;;;;5103339;28;20108;-77
2023/02/16 08:59:14;;;;;;;126.53;64.13;;;8.80;99.90;;;;;;5086600;28;20055;-77
2023/02/16 09:01:40;;;;;;;126.63;66.32;;;8.90;99.90;;;;;;5105641;28;20020;-77
2023/02/16 09:04:06;;;;;;;123.53;62.60;;;9.00;99.90;;;;;;5104413;28;20506;-77
2023/02/16 09:06:37;;;;;;;122.65;61.17;;;9.10;99.90;;;;;;5106984;28;20024;-77
2023/02/16 09:09:03;;;;;;;129.45;62.13;;;9.10;99.90;;;;;;5086361;28;20028;-77
2023/02/16 09:11:30;;;;;;;130.25;67.45;;;9.20;99.90;;;;;;5067985;28;20051;-77
2023/02/16 09:13:56;;;;;;;142.07;73.15;;;9.30;99.90;;;;;;5064634;28;20039;-78
2023/02/16 09:16:23;;;;;;;148.10;72.53;;;9.30;99.90;;;;;;5061860;28;20401;-77
2023/02/16 09:18:49;;;;;;;152.50;77.57;;;9.30;99.90;;;;;;5065283;28;20112;-77
2023/02/16 09:21:24;;;;;;;145.93;76.70;;;9.30;99.90;;;;;;5064744;28;20294;-77
2023/02/16 09:23:53;;;;;;;161.77;77.88;;;9.30;99.90;;;;;;5062867;28;20028;-77
2023/02/16 09:26:20;;;;;;;157.45;76.18;;;9.40;99.90;;;;;;5061446;28;20424;-77
2023/02/16 09:28:47;;;;;;;154.35;79.47;;;9.40;99.90;;;;;;5062632;28;20407;-77
2023/02/16 09:31:14;;;;;;;154.85;78.78;;;9.40;99.90;;;;;;5062504;28;20301;-77
2023/02/16 09:33:42;;;;;;;150.90;80.20;;;9.40;99.90;;;;;;5063198;28;20077;-77
2023/02/16 09:36:10;;;;;;;167.65;83.68;;;9.40;99.90;;;;;;5066786;28;20047;-77
2023/02/16 09:38:40;;;;;;;158.57;79.40;;;9.40;99.90;;;;;;5062441;28;20480;-78
2023/02/16 09:41:17;;;;;;;146.32;74.32;;;9.50;99.90;;;;;;5059220;28;20072;-77
2023/02/16 09:43:56;;;;;;;146.93;75.05;;;9.60;99.90;;;;;;5061598;28;20047;-77
2023/02/16 09:46:23;;;;;;;143.70;76.38;;;9.60;99.90;;;;;;5059804;28;20017;-77
2023/02/16 09:48:51;;;;;;;138.50;72.65;;;9.70;99.90;;;;;;5063755;28;20021;-77
2023/02/16 09:51:30;;;;;;;138.02;70.18;;;9.80;99.90;;;;;;5062363;28;20013;-77
2023/02/16 09:54:05;;;;;;;134.45;67.10;;;9.80;99.90;;;;;;5062287;28;20021;-77
2023/02/16 09:56:39;;;;;;;131.68;66.55;;;9.90;99.90;;;;;;5060363;28;20570;-77
2023/02/16 09:59:47;;;;;;;134.68;67.00;;;10.00;99.90;;;;;;5060822;28;20029;-77
2023/02/16 10:02:18;;;;;;;135.98;66.35;;;10.10;99.90;;;;;;5057021;28;20553;-77
2023/02/16 10:05:03;;;;;;;136.70;69.10;;;10.20;99.90;;;;;;5060911;28;20029;-77
2023/02/16 10:07:43;;;;;;;134.00;65.60;;;10.40;99.90;;;;;;5060941;28;20039;-77
2023/02/16 10:10:15;;;;;;;128.95;63.92;;;10.40;99.90;;;;;;5063666;28;20071;-77
2023/02/16 10:12:51;;;;;;;121.35;62.40;;;10.50;99.90;;;;;;5081922;28;20047;-77
2023/02/16 10:15:22;;;;;;;130.13;61.20;;;10.60;99.90;;;;;;5083271;28;20078;-78
2023/02/16 10:17:56;;;;;;;114.68;58.50;;;10.50;99.90;;;;;;5085033;28;20147;-77
2023/02/16 10:20:32;;;;;;;115.72;56.85;;;10.60;99.90;;;;;;5083301;28;20020;-77
2023/02/16 10:23:19;;;;;;;116.88;58.92;;;10.60;99.90;;;;;;5061238;28;20029;-77
2023/02/16 10:26:10;;;;;;;107.20;55.05;;;10.50;99.90;;;;;;5061179;28;20041;-78
2023/02/16 10:29:05;;;;;;;109.50;56.47;;;10.50;99.90;;;;;;5064842;28;20101;-77
2023/02/16 10:31:42;;;;;;;110.40;55.10;;;10.50;99.90;;;;;;5060796;28;20028;-77
2023/02/16 10:34:26;;;;;;;115.47;55.95;;;10.50;99.90;;;;;;5077713;28;20024;-77
2023/02/16 10:37:08;;;;;;;117.40;57.28;;;10.50;99.90;;;;;;5081440;28;20081;-77
2023/02/16 10:39:59;;;;;;;111.07;54.70;;;10.50;99.90;;;;;;5081695;28;20016;-77
2023/02/16 10:42:49;;;;;;;100.53;51.47;;;10.60;99.90;;;;;;5079113;28;20046;-77
2023/02/16 10:45:20;;;;;;;104.35;52.20;;;10.60;99.90;;;;;;5084238;28;20024;-77
2023/02/16 10:47:46;;;;;;;101.40;52.88;;;10.60;99.90;;;;;;5082574;28;20499;-77
2023/02/16 10:50:39;;;;;;;102.65;52.65;;;10.70;99.90;;;;;;5082504;28;20021;-77
2023/02/16 10:53:14;;;;;;;106.13;51.38;;;10.80;99.90;;;;;;5083232;28;20054;-78
2023/02/16 10:55:40;;;;;;;101.80;53.47;;;10.80;99.90;;;;;;5077503;28;20031;-77
2023/02/16 10:58:18;;;;;;;113.70;56.03;;;10.80;99.90;;;;;;5081372;28;20556;-77
2023/02/16 11:00:57;;;;;;;114.97;56.95;;;10.90;99.90;;;;;;5076900;28;20063;-77
2023/02/16 11:03:27;;;;;;;120.78;57.80;;;10.90;99.90;;;;;;5081080;28;20034;-77
2023/02/16 11:05:54;;;;;;;127.63;61.50;;;10.90;99.90;;;;;;5083175;28;20024;-77
2023/02/16 11:08:19;;;;;;;121.55;61.00;;;10.90;99.90;;;;;;5078944;28;20077;-77
2023/02/16 11:10:53;;;;;;;117.07;60.17;;;10.90;99.90;;;;;;5073108;28;20513;-77
2023/02/16 11:13:32;;;;;;;120.85;58.10;;;11.00;99.90;;;;;;5058502;28;20438;-78
2023/02/16 11:16:12;;;;;;;119.38;60.92;;;11.00;99.90;;;;;;5060676;28;20100;-78
2023/02/16 11:18:41;;;;;;;123.38;63.13;;;11.10;99.90;;;;;;5059955;28;20028;-77
2023/02/16 11:21:08;;;;;;;131.48;64.13;;;11.20;99.90;;;;;;5060713;28;20108;-77
2023/02/16 11:23:38;;;;;;;142.48;71.25;;;11.30;99.90;;;;;;5061835;28;20035;-77
2023/02/16 11:26:20;;;;;;;140.43;68.72;;;11.30;99.90;;;;;;5061468;28;20475;-77
2023/02/16 11:28:47;;;;;;;140.98;67.60;;;11.30;99.90;;;;;;5061152;28;20024;-77
2023/02/16 11:31:24;;;;;;;142.15;68.28;;;11.30;99.90;;;;;;5062113;28;20149;-78
2023/02/16 11:34:03;;;;;;;134.68;67.88;;;11.40;99.90;;;;;;5058793;28;20048;-77
2023/02/16 11:36:36;;;;;;;148.50;70.00;;;11.40;99.90;;;;;;5059273;28;20128;-77
2023/02/16 11:39:13;;;;;;;138.98;68.75;;;11.50;99.90;;;;;;5060461;28;20078;-78
2023/02/16 11:41:51;;;;;;;153.18;74.63;;;11.60;99.90;;;;;;5060091;28;20071;-77
2023/02/16 11:44:37;;;;;;;151.55;74.78;;;11.70;99.90;;;;;;5063205;28;20617;-78
2023/02/16 11:47:21;;;;;;;144.63;74.13;;;11.90;99.90;;;;;;5044761;28;20178;-77
2023/02/16 11:49:48;;;;;;;151.00;75.13;;;11.80;99.90;;;;;;5060535;28;20086;-77
2023/02/16 11:52:23;;;;;;;153.32;76.50;;;11.80;99.90;;;;;;5057967;28;20469;-77
2023/02/16 11:54:49;;;;;;;155.38;75.10;;;11.90;99.90;;;;;;5058447;28;20025;-77
2023/02/16 11:57:27;;;;;;;150.93;74.40;;;11.80;99.90;;;;;;5059843;28;20067;-77
2023/02/16 11:59:55;;;;;;;161.77;80.80;;;11.80;99.90;;;;;;5060976;28;20039;-77
2023/02/16 12:03:17;;;;;;;161.73;78.88;;;11.90;99.90;;;;;;5062228;28;20036;-77
2023/02/16 12:05:46;;;;;;;160.20;77.80;;;12.00;99.90;;;;;;5001630;28;20113;-77
2023/02/16 12:08:17;;;;;;;159.70;80.53;;;12.00;99.90;;;;;;5055247;28;20037;-77
2023/02/16 12:11:01;;;;;;;159.95;81.15;;;12.00;99.90;;;;;;5078618;28;20165;-77
2023/02/16 12:13:44;;;;;;;171.25;82.95;;;12.10;99.90;;;;;;5099513;28;20125;-77
2023/02/16 12:16:28;;;;;;;164.80;82.20;;;12.10;99.90;;;;;;5098251;28;20514;-77
2023/02/16 12:19:21;;;;;;;169.07;85.28;;;12.00;99.90;;;;;;5097692;28;20396;-77
2023/02/16 12:21:50;;;;;;;170.38;86.30;;;12.10;99.90;;;;;;5102958;28;20020;-77
2023/02/16 12:24:25;;;;;;;169.23;86.45;;;12.10;99.90;;;;;;5104976;28;20096;-77
2023/02/16 12:27:01;;;;;;;170.23;88.07;;;12.20;99.90;;;;;;5101557;28;20031;-77
2023/02/16 12:29:53;;;;;;;178.20;90.03;;;12.20;99.90;;;;;;5104996;28;20012;-77
2023/02/16 12:32:58;;;;;;;169.02;85.38;;;12.30;99.90;;;;;;5093772;28;20112;-78
2023/02/16 12:35:49;;;;;;;177.52;86.80;;;12.30;99.90;;;;;;5048054;28;20031;-77
2023/02/16 12:38:33;;;;;;;180.52;91.32;;;12.30;99.90;;;;;;5068211;28;20489;-78
2023/02/16 12:41:26;;;;;;;175.25;90.80;;;12.30;99.90;;;;;;5101214;28;20089;-78
2023/02/16 12:44:02;;;;;;;177.02;89.60;;;12.30;99.90;;;;;;5099226;28;20020;-79
2023/02/16 12:46:39;;;;;;;173.23;88.70;;;12.30;99.90;;;;;;5078890;28;20036;-77
2023/02/16 12:49:24;;;;;;;178.65;90.20;;;12.30;99.90;;;;;;5100279;28;20024;-77
2023/02/16 12:52:06;;;;;;;173.63;89.75;;;12.40;99.90;;;;;;5079576;28;20024;-77
2023/02/16 12:54:44;;;;;;;173.38;93.57;;;12.50;99.90;;;;;;5096126;28;20370;-77
2023/02/16 12:57:19;;;;;;;166.70;89.93;;;12.50;99.90;;;;;;5096385;28;20028;-77
2023/02/16 13:00:20;;;;;;;181.07;94.10;;;12.50;99.90;;;;;;5097875;28;20020;-77
2023/02/16 13:02:55;;;;;;;168.05;89.53;;;12.60;99.90;;;;;;5098601;28;20479;-77
2023/02/16 13:05:30;;;;;;;179.88;93.13;;;12.50;99.90;;;;;;5099351;28;20487;-77
2023/02/16 13:08:06;;;;;;;178.20;91.15;;;12.50;99.90;;;;;;5083189;28;20027;-77
2023/02/16 13:10:37;;;;;;;176.88;92.10;;;12.40;99.90;;;;;;5077320;28;20400;-77
2023/02/16 13:13:09;;;;;;;179.50;91.20;;;12.40;99.90;;;;;;5102299;28;20020;-77
2023/02/16 13:15:39;;;;;;;169.25;89.72;;;12.40;99.90;;;;;;5099561;28;20032;-77
2023/02/16 13:18:30;;;;;;;167.45;87.95;;;12.40;99.90;;;;;;5083024;28;20433;-77
2023/02/16 13:21:08;;;;;;;166.48;87.50;;;12.40;99.90;;;;;;5102214;28;20034;-77
2023/02/16 13:23:49;;;;;;;167.70;86.40;;;12.40;99.90;;;;;;5098966;28;20119;-77
2023/02/16 13:26:41;;;;;;;170.02;87.28;;;12.50;99.90;;;;;;5102235;28;20012;-77
2023/02/16 13:29:44;;;;;;;169.65;86.63;;;12.40;99.90;;;;;;5086339;28;20023;-77
2023/02/16 13:32:32;;;;;;;166.45;85.95;;;12.40;99.90;;;;;;5071881;28;20029;-77
2023/02/16 13:35:09;;;;;;;165.32;85.28;;;12.40;99.90;;;;;;5102446;28;20024;-77
2023/02/16 13:37:47;;;;;;;162.48;85.00;;;12.40;99.90;;;;;;5099177;28;20060;-77